Panama City Beach, FL

5:27 AM CDT on October 24, 2014 (GMT -0500)
Millville | Change Station
CLOSE
Current Station
Personal Weather Station
Location: Panama City, FL
Elevation: 20 ft
Nearby Weather Stations

Elev 20 ft 30.15 °N, 85.63 °W | Updated 6 minutes ago

Mostly Cloudy
Mostly Cloudy
53.7 °F
Feels Like 53.7 °F
N
0.0
Wind Variable Wind from SSE
Gusts 0.0 mph

Today
High -- | Low -- °F
--% Chance of Precip.
Yesterday
High -- | Low -- °F
Precip. -- in
6:50 AM 6:02 PM
New Moon, 0% visible
Pressure 30.04 in
Visibility 10.0 miles
Clouds Overcast 20000 ft
Dew Point 50 °F
Humidity 89%
Rainfall 0.00 in
Snow Depth Not available.
UV 0 out of 12
Pollen 4.60 out of 12
Air Quality Not available.
Flu Activity Local Activity
METAR KPAM 240958Z AUTO 32001KT 10SM OVC200 12/10 A3003 RMK AO2 SLP172 T01150102 $

More Conditions Fewer Conditions

Pressure 30.04 in
Visibility 10.0 miles
Clouds Overcast 20000 ft
Dew Point 50 °F
Humidity 89%
Rainfall 0.00 in
Snow Depth Not available.
UV 0 out of 12
Pollen 4.60 out of 12
Air Quality Not available.
Flu Activity Local Activity
METAR KPAM 240958Z AUTO 32001KT 10SM OVC200 12/10 A3003 RMK AO2 SLP172 T01150102 $

More Conditions Fewer Conditions

10-Day Weather Forecast

Almanac

Astronomy

Oct. 24, 2014 Rise Set
Actual Time 6:50 AM CDT 6:02 PM CDT
Civil Twilight 6:26 AM CDT 6:26 PM CDT
Nautical Twilight 5:58 AM CDT 6:54 PM CDT
Astronomical Twilight 5:30 AM CDT 7:22 PM CDT
Moon 7:27 AM CDT 6:45 PM CDT
Length of Visible Light 12h 00m
Length of Day
11h 11m
Tomorrow will be 1m 40s shorter.
New Moon, 0% of the Moon is Illuminated
Today
New Moon
Oct 30
First Quarter
Nov 6
Full
Nov 14
Last Quarter
Nov 22
New

Today's Extremes

State Highs State Lows

Community

WunderPhotos

Upload Photos

1,764,513 photos uploaded!

WunderBlogs® & News

Nearby

Snow Depth

Station Depth Elevation
No new snow has been reported.

Earthquake Activity

City Distance Mag. Time & Date
No recent earthquake activity has been reported nearby.
Minimum magnitude displayed is 2.5.

Coastal Water Temperatures

Place Temperature
Panama City, FL 72.0 °F
Panama City Beach, FL 75.0 °F
Apalachicola, FL 73.0 °F

Nearby Weather Stations